sensor_id;sensor_type;location;lat;lon;timestamp;temperature;humidity
16271;DHT22;8243;49.048;8.396;2024-02-23T00:00:07;8.20;91.40
16271;DHT22;8243;49.048;8.396;2024-02-23T00:02:33;8.20;91.30
16271;DHT22;8243;49.048;8.396;2024-02-23T00:05:13;8.10;91.10
16271;DHT22;8243;49.048;8.396;2024-02-23T00:07:45;8.20;90.80
16271;DHT22;8243;49.048;8.396;2024-02-23T00:10:14;8.20;90.70
16271;DHT22;8243;49.048;8.396;2024-02-23T00:12:42;8.10;90.30
16271;DHT22;8243;49.048;8.396;2024-02-23T00:15:35;8.10;86.70
16271;DHT22;8243;49.048;8.396;2024-02-23T00:18:00;8.20;87.00
16271;DHT22;8243;49.048;8.396;2024-02-23T00:20:31;8.20;86.10
16271;DHT22;8243;49.048;8.396;2024-02-23T00:22:57;8.10;83.70
16271;DHT22;8243;49.048;8.396;2024-02-23T00:25:23;8.10;83.70
16271;DHT22;8243;49.048;8.396;2024-02-23T00:27:55;8.10;84.10
16271;DHT22;8243;49.048;8.396;2024-02-23T00:30:27;8.00;83.80
16271;DHT22;8243;49.048;8.396;2024-02-23T00:32:58;8.10;83.00
16271;DHT22;8243;49.048;8.396;2024-02-23T00:35:44;8.00;83.70
16271;DHT22;8243;49.048;8.396;2024-02-23T00:38:09;8.00;83.10
16271;DHT22;8243;49.048;8.396;2024-02-23T00:40:35;8.00;83.60
16271;DHT22;8243;49.048;8.396;2024-02-23T00:43:01;8.00;83.90
16271;DHT22;8243;49.048;8.396;2024-02-23T00:45:30;7.90;84.30
16271;DHT22;8243;49.048;8.396;2024-02-23T00:48:02;7.80;85.20
16271;DHT22;8243;49.048;8.396;2024-02-23T00:50:41;7.80;86.30
16271;DHT22;8243;49.048;8.396;2024-02-23T00:53:13;7.70;86.10
16271;DHT22;8243;49.048;8.396;2024-02-23T00:55:41;7.70;85.20
16271;DHT22;8243;49.048;8.396;2024-02-23T00:58:07;7.70;84.30
16271;DHT22;8243;49.048;8.396;2024-02-23T01:00:48;7.80;83.40
16271;DHT22;8243;49.048;8.396;2024-02-23T01:03:42;7.70;82.50
16271;DHT22;8243;49.048;8.396;2024-02-23T01:06:30;7.70;82.80
16271;DHT22;8243;49.048;8.396;2024-02-23T01:09:01;7.60;81.60
16271;DHT22;8243;49.048;8.396;2024-02-23T01:11:29;7.60;82.10
16271;DHT22;8243;49.048;8.396;2024-02-23T01:14:02;7.60;80.70
16271;DHT22;8243;49.048;8.396;2024-02-23T01:16:28;7.70;79.80
16271;DHT22;8243;49.048;8.396;2024-02-23T01:18:53;7.60;80.30
16271;DHT22;8243;49.048;8.396;2024-02-23T01:21:19;7.50;81.00
16271;DHT22;8243;49.048;8.396;2024-02-23T01:23:46;7.50;82.50
16271;DHT22;8243;49.048;8.396;2024-02-23T01:26:12;7.40;82.40
16271;DHT22;8243;49.048;8.396;2024-02-23T01:28:38;7.30;83.70
16271;DHT22;8243;49.048;8.396;2024-02-23T01:31:04;7.30;84.30
16271;DHT22;8243;49.048;8.396;2024-02-23T01:33:30;7.30;84.40
16271;DHT22;8243;49.048;8.396;2024-02-23T01:35:55;7.30;84.10
16271;DHT22;8243;49.048;8.396;2024-02-23T01:38:22;7.40;84.00
16271;DHT22;8243;49.048;8.396;2024-02-23T01:40:50;7.30;84.70
16271;DHT22;8243;49.048;8.396;2024-02-23T01:43:15;7.30;84.90
16271;DHT22;8243;49.048;8.396;2024-02-23T01:45:41;7.30;83.70
16271;DHT22;8243;49.048;8.396;2024-02-23T01:48:07;7.30;84.60
16271;DHT22;8243;49.048;8.396;2024-02-23T01:50:33;7.40;84.00
16271;DHT22;8243;49.048;8.396;2024-02-23T01:53:00;7.50;82.40
16271;DHT22;8243;49.048;8.396;2024-02-23T01:55:27;7.50;83.20
16271;DHT22;8243;49.048;8.396;2024-02-23T01:57:53;7.60;83.00
16271;DHT22;8243;49.048;8.396;2024-02-23T02:00:20;7.60;81.20
16271;DHT22;8243;49.048;8.396;2024-02-23T02:02:47;7.60;81.20
16271;DHT22;8243;49.048;8.396;2024-02-23T02:05:13;7.60;78.70
16271;DHT22;8243;49.048;8.396;2024-02-23T02:07:40;7.60;77.90
16271;DHT22;8243;49.048;8.396;2024-02-23T02:10:09;7.60;77.00
16271;DHT22;8243;49.048;8.396;2024-02-23T02:12:35;7.60;76.60
16271;DHT22;8243;49.048;8.396;2024-02-23T02:15:01;7.60;75.40
16271;DHT22;8243;49.048;8.396;2024-02-23T02:17:29;7.60;75.00
16271;DHT22;8243;49.048;8.396;2024-02-23T02:19:57;7.70;73.70
16271;DHT22;8243;49.048;8.396;2024-02-23T02:22:23;7.70;72.40
16271;DHT22;8243;49.048;8.396;2024-02-23T02:24:49;7.70;71.80
16271;DHT22;8243;49.048;8.396;2024-02-23T02:27:15;7.70;72.50
16271;DHT22;8243;49.048;8.396;2024-02-23T02:29:49;7.60;72.50
16271;DHT22;8243;49.048;8.396;2024-02-23T02:32:16;7.70;72.60
16271;DHT22;8243;49.048;8.396;2024-02-23T02:34:42;7.60;73.30
16271;DHT22;8243;49.048;8.396;2024-02-23T02:37:08;7.70;73.70
16271;DHT22;8243;49.048;8.396;2024-02-23T02:39:33;7.60;74.40
16271;DHT22;8243;49.048;8.396;2024-02-23T02:41:59;7.50;75.20
16271;DHT22;8243;49.048;8.396;2024-02-23T02:44:25;7.50;75.80
16271;DHT22;8243;49.048;8.396;2024-02-23T02:46:52;7.50;76.10
16271;DHT22;8243;49.048;8.396;2024-02-23T02:49:17;7.50;76.70
16271;DHT22;8243;49.048;8.396;2024-02-23T02:51:44;7.40;77.70
16271;DHT22;8243;49.048;8.396;2024-02-23T02:54:11;7.30;77.70
16271;DHT22;8243;49.048;8.396;2024-02-23T02:56:42;7.30;78.30
16271;DHT22;8243;49.048;8.396;2024-02-23T02:59:08;7.30;79.10
16271;DHT22;8243;49.048;8.396;2024-02-23T03:01:33;7.40;78.00
16271;DHT22;8243;49.048;8.396;2024-02-23T03:03:59;7.30;78.20
16271;DHT22;8243;49.048;8.396;2024-02-23T03:06:24;7.30;77.50
16271;DHT22;8243;49.048;8.396;2024-02-23T03:08:50;7.30;76.50
16271;DHT22;8243;49.048;8.396;2024-02-23T03:11:15;7.30;76.50
16271;DHT22;8243;49.048;8.396;2024-02-23T03:13:41;7.30;76.90
16271;DHT22;8243;49.048;8.396;2024-02-23T03:16:14;7.30;74.60
16271;DHT22;8243;49.048;8.396;2024-02-23T03:18:40;7.20;75.10
16271;DHT22;8243;49.048;8.396;2024-02-23T03:21:06;7.10;75.00
16271;DHT22;8243;49.048;8.396;2024-02-23T03:23:32;7.00;74.00
16271;DHT22;8243;49.048;8.396;2024-02-23T03:25:57;7.00;71.00
16271;DHT22;8243;49.048;8.396;2024-02-23T03:28:23;7.00;69.50
16271;DHT22;8243;49.048;8.396;2024-02-23T03:30:51;6.90;68.20
16271;DHT22;8243;49.048;8.396;2024-02-23T03:33:16;6.90;68.50
16271;DHT22;8243;49.048;8.396;2024-02-23T03:36:00;6.90;68.40
16271;DHT22;8243;49.048;8.396;2024-02-23T03:38:28;6.90;68.40
16271;DHT22;8243;49.048;8.396;2024-02-23T03:40:55;7.00;68.00
16271;DHT22;8243;49.048;8.396;2024-02-23T03:43:21;7.00;66.90
16271;DHT22;8243;49.048;8.396;2024-02-23T03:45:47;7.10;67.00
16271;DHT22;8243;49.048;8.396;2024-02-23T03:48:14;7.10;66.30
16271;DHT22;8243;49.048;8.396;2024-02-23T03:50:40;7.10;64.30
16271;DHT22;8243;49.048;8.396;2024-02-23T03:53:07;7.20;62.40
16271;DHT22;8243;49.048;8.396;2024-02-23T03:55:32;7.20;62.80
16271;DHT22;8243;49.048;8.396;2024-02-23T03:57:58;7.20;62.90
16271;DHT22;8243;49.048;8.396;2024-02-23T04:00:24;7.20;62.30
16271;DHT22;8243;49.048;8.396;2024-02-23T04:02:50;7.10;61.80
16271;DHT22;8243;49.048;8.396;2024-02-23T04:05:15;7.10;61.20
16271;DHT22;8243;49.048;8.396;2024-02-23T04:07:41;7.00;62.10
16271;DHT22;8243;49.048;8.396;2024-02-23T04:10:07;7.10;62.10
16271;DHT22;8243;49.048;8.396;2024-02-23T04:12:33;7.10;62.40
16271;DHT22;8243;49.048;8.396;2024-02-23T04:14:58;7.20;62.20
16271;DHT22;8243;49.048;8.396;2024-02-23T04:17:24;7.10;62.80
16271;DHT22;8243;49.048;8.396;2024-02-23T04:19:49;7.10;63.10
16271;DHT22;8243;49.048;8.396;2024-02-23T04:22:15;7.00;63.70
16271;DHT22;8243;49.048;8.396;2024-02-23T04:24:47;7.00;64.10
16271;DHT22;8243;49.048;8.396;2024-02-23T04:27:13;7.00;65.00
16271;DHT22;8243;49.048;8.396;2024-02-23T04:29:38;7.00;65.50
16271;DHT22;8243;49.048;8.396;2024-02-23T04:32:10;6.90;65.20
16271;DHT22;8243;49.048;8.396;2024-02-23T04:34:38;7.00;65.10
16271;DHT22;8243;49.048;8.396;2024-02-23T04:40:10;6.90;64.90
16271;DHT22;8243;49.048;8.396;2024-02-23T04:42:48;6.90;64.60
16271;DHT22;8243;49.048;8.396;2024-02-23T04:48:23;6.90;63.40
16271;DHT22;8243;49.048;8.396;2024-02-23T04:50:50;6.80;62.90
16271;DHT22;8243;49.048;8.396;2024-02-23T04:53:15;6.80;63.10
16271;DHT22;8243;49.048;8.396;2024-02-23T04:55:56;6.80;63.40
16271;DHT22;8243;49.048;8.396;2024-02-23T04:58:21;6.80;62.70
16271;DHT22;8243;49.048;8.396;2024-02-23T05:01:05;6.90;62.50
16271;DHT22;8243;49.048;8.396;2024-02-23T05:03:46;6.90;60.60
16271;DHT22;8243;49.048;8.396;2024-02-23T05:06:26;7.00;60.20
16271;DHT22;8243;49.048;8.396;2024-02-23T05:08:52;6.90;60.00
16271;DHT22;8243;49.048;8.396;2024-02-23T05:11:40;7.00;58.80
16271;DHT22;8243;49.048;8.396;2024-02-23T05:17:22;6.90;58.20
16271;DHT22;8243;49.048;8.396;2024-02-23T05:19:52;6.90;58.20
16271;DHT22;8243;49.048;8.396;2024-02-23T05:22:18;6.90;57.50
16271;DHT22;8243;49.048;8.396;2024-02-23T05:24:53;6.90;58.00
16271;DHT22;8243;49.048;8.396;2024-02-23T05:30:29;6.70;57.60
16271;DHT22;8243;49.048;8.396;2024-02-23T05:33:14;6.60;59.30
16271;DHT22;8243;49.048;8.396;2024-02-23T05:35:46;6.60;60.20
16271;DHT22;8243;49.048;8.396;2024-02-23T05:41:52;6.50;61.40
16271;DHT22;8243;49.048;8.396;2024-02-23T05:44:54;6.40;62.50
16271;DHT22;8243;49.048;8.396;2024-02-23T05:47:20;6.40;63.60
16271;DHT22;8243;49.048;8.396;2024-02-23T05:50:05;6.30;65.10
16271;DHT22;8243;49.048;8.396;2024-02-23T05:52:39;6.20;65.70
16271;DHT22;8243;49.048;8.396;2024-02-23T05:55:05;6.30;66.20
16271;DHT22;8243;49.048;8.396;2024-02-23T05:57:37;6.20;65.70
16271;DHT22;8243;49.048;8.396;2024-02-23T06:00:07;6.20;64.80
16271;DHT22;8243;49.048;8.396;2024-02-23T06:03:05;6.10;64.60
16271;DHT22;8243;49.048;8.396;2024-02-23T06:05:35;6.00;64.70
16271;DHT22;8243;49.048;8.396;2024-02-23T06:08:01;5.90;65.30
16271;DHT22;8243;49.048;8.396;2024-02-23T06:10:26;5.80;65.90
16271;DHT22;8243;49.048;8.396;2024-02-23T06:12:52;5.80;65.30
16271;DHT22;8243;49.048;8.396;2024-02-23T06:15:17;5.70;65.10
16271;DHT22;8243;49.048;8.396;2024-02-23T06:17:43;5.70;65.30
16271;DHT22;8243;49.048;8.396;2024-02-23T06:20:10;5.70;65.30
16271;DHT22;8243;49.048;8.396;2024-02-23T06:22:36;5.70;65.30
16271;DHT22;8243;49.048;8.396;2024-02-23T06:25:02;5.60;65.20
16271;DHT22;8243;49.048;8.396;2024-02-23T06:27:27;5.60;65.10
16271;DHT22;8243;49.048;8.396;2024-02-23T06:29:53;5.60;65.20
16271;DHT22;8243;49.048;8.396;2024-02-23T06:32:19;5.60;65.80
16271;DHT22;8243;49.048;8.396;2024-02-23T06:35:16;5.70;66.20
16271;DHT22;8243;49.048;8.396;2024-02-23T06:37:46;5.70;66.70
16271;DHT22;8243;49.048;8.396;2024-02-23T06:40:15;5.70;66.50
16271;DHT22;8243;49.048;8.396;2024-02-23T06:42:41;5.80;66.70
16271;DHT22;8243;49.048;8.396;2024-02-23T06:45:07;5.90;66.50
16271;DHT22;8243;49.048;8.396;2024-02-23T06:47:35;5.90;65.50
16271;DHT22;8243;49.048;8.396;2024-02-23T06:50:01;6.00;66.30
16271;DHT22;8243;49.048;8.396;2024-02-23T06:52:28;6.10;66.90
16271;DHT22;8243;49.048;8.396;2024-02-23T06:54:54;6.00;66.70
16271;DHT22;8243;49.048;8.396;2024-02-23T06:57:21;6.00;66.60
16271;DHT22;8243;49.048;8.396;2024-02-23T06:59:47;6.00;67.70
16271;DHT22;8243;49.048;8.396;2024-02-23T07:02:13;6.00;69.00
16271;DHT22;8243;49.048;8.396;2024-02-23T07:04:38;5.90;70.80
16271;DHT22;8243;49.048;8.396;2024-02-23T07:07:04;5.90;72.30
16271;DHT22;8243;49.048;8.396;2024-02-23T07:09:33;5.90;73.30
16271;DHT22;8243;49.048;8.396;2024-02-23T07:11:58;5.90;74.90
16271;DHT22;8243;49.048;8.396;2024-02-23T07:14:24;5.90;75.50
16271;DHT22;8243;49.048;8.396;2024-02-23T07:16:50;5.90;75.40
16271;DHT22;8243;49.048;8.396;2024-02-23T07:19:16;6.00;74.50
16271;DHT22;8243;49.048;8.396;2024-02-23T07:21:43;6.10;73.70
16271;DHT22;8243;49.048;8.396;2024-02-23T07:24:08;6.10;73.20
16271;DHT22;8243;49.048;8.396;2024-02-23T07:26:34;6.20;72.40
16271;DHT22;8243;49.048;8.396;2024-02-23T07:29:00;6.40;71.70
16271;DHT22;8243;49.048;8.396;2024-02-23T07:31:25;6.40;70.30
16271;DHT22;8243;49.048;8.396;2024-02-23T07:33:51;6.40;68.60
16271;DHT22;8243;49.048;8.396;2024-02-23T07:36:19;6.40;69.10
16271;DHT22;8243;49.048;8.396;2024-02-23T07:38:45;6.40;69.20
16271;DHT22;8243;49.048;8.396;2024-02-23T07:41:11;6.60;69.60
16271;DHT22;8243;49.048;8.396;2024-02-23T07:43:38;6.90;66.70
16271;DHT22;8243;49.048;8.396;2024-02-23T07:46:04;7.70;63.60
16271;DHT22;8243;49.048;8.396;2024-02-23T07:48:30;9.40;56.60
16271;DHT22;8243;49.048;8.396;2024-02-23T07:50:56;10.80;39.60
16271;DHT22;8243;49.048;8.396;2024-02-23T07:53:21;12.10;30.20
16271;DHT22;8243;49.048;8.396;2024-02-23T07:55:47;12.90;26.10
16271;DHT22;8243;49.048;8.396;2024-02-23T07:58:12;13.80;24.30
16271;DHT22;8243;49.048;8.396;2024-02-23T08:00:38;14.40;21.00
16271;DHT22;8243;49.048;8.396;2024-02-23T08:03:04;14.80;19.40
16271;DHT22;8243;49.048;8.396;2024-02-23T08:05:30;15.40;18.20
16271;DHT22;8243;49.048;8.396;2024-02-23T08:07:55;15.60;16.70
16271;DHT22;8243;49.048;8.396;2024-02-23T08:10:21;15.40;15.50
16271;DHT22;8243;49.048;8.396;2024-02-23T08:12:48;14.80;15.40
16271;DHT22;8243;49.048;8.396;2024-02-23T08:15:13;15.00;14.30
16271;DHT22;8243;49.048;8.396;2024-02-23T08:17:39;15.20;13.40
16271;DHT22;8243;49.048;8.396;2024-02-23T08:20:05;15.30;13.00
16271;DHT22;8243;49.048;8.396;2024-02-23T08:22:30;15.90;12.20
16271;DHT22;8243;49.048;8.396;2024-02-23T08:24:56;15.60;11.70
16271;DHT22;8243;49.048;8.396;2024-02-23T08:27:22;15.10;11.60
16271;DHT22;8243;49.048;8.396;2024-02-23T08:29:48;14.80;11.10
16271;DHT22;8243;49.048;8.396;2024-02-23T08:32:14;14.90;10.30
16271;DHT22;8243;49.048;8.396;2024-02-23T08:34:56;14.60;10.80
16271;DHT22;8243;49.048;8.396;2024-02-23T08:37:25;13.40;11.40
16271;DHT22;8243;49.048;8.396;2024-02-23T08:39:51;13.30;12.00
16271;DHT22;8243;49.048;8.396;2024-02-23T08:42:17;13.90;11.10
16271;DHT22;8243;49.048;8.396;2024-02-23T08:44:45;14.70;9.70
16271;DHT22;8243;49.048;8.396;2024-02-23T08:47:11;15.50;8.10
16271;DHT22;8243;49.048;8.396;2024-02-23T08:49:37;15.60;7.00
16271;DHT22;8243;49.048;8.396;2024-02-23T08:52:03;15.30;6.80
16271;DHT22;8243;49.048;8.396;2024-02-23T08:54:29;15.70;7.10
16271;DHT22;8243;49.048;8.396;2024-02-23T08:56:55;16.40;6.30
16271;DHT22;8243;49.048;8.396;2024-02-23T08:59:20;16.60;6.00
16271;DHT22;8243;49.048;8.396;2024-02-23T09:01:46;16.70;4.20
16271;DHT22;8243;49.048;8.396;2024-02-23T09:04:13;17.10;4.00
16271;DHT22;8243;49.048;8.396;2024-02-23T09:06:45;16.40;4.00
16271;DHT22;8243;49.048;8.396;2024-02-23T09:09:13;15.10;4.60
16271;DHT22;8243;49.048;8.396;2024-02-23T09:11:38;13.60;7.00
16271;DHT22;8243;49.048;8.396;2024-02-23T09:14:04;12.90;8.40
16271;DHT22;8243;49.048;8.396;2024-02-23T09:16:31;13.00;9.00
16271;DHT22;8243;49.048;8.396;2024-02-23T09:18:56;12.70;8.70
16271;DHT22;8243;49.048;8.396;2024-02-23T09:21:22;12.00;10.10
16271;DHT22;8243;49.048;8.396;2024-02-23T09:23:47;11.70;11.30
16271;DHT22;8243;49.048;8.396;2024-02-23T09:26:25;11.90;12.50
16271;DHT22;8243;49.048;8.396;2024-02-23T09:28:51;11.80;11.40
16271;DHT22;8243;49.048;8.396;2024-02-23T09:31:16;11.60;12.00
16271;DHT22;8243;49.048;8.396;2024-02-23T09:33:42;12.10;11.60
16271;DHT22;8243;49.048;8.396;2024-02-23T09:36:11;13.50;10.10
16271;DHT22;8243;49.048;8.396;2024-02-23T09:38:36;14.80;9.10
16271;DHT22;8243;49.048;8.396;2024-02-23T09:41:03;15.00;7.50
16271;DHT22;8243;49.048;8.396;2024-02-23T09:43:29;14.90;6.80
16271;DHT22;8243;49.048;8.396;2024-02-23T09:45:56;14.30;7.90
16271;DHT22;8243;49.048;8.396;2024-02-23T09:48:24;14.20;8.30
16271;DHT22;8243;49.048;8.396;2024-02-23T09:50:50;13.80;8.80
16271;DHT22;8243;49.048;8.396;2024-02-23T09:53:17;13.70;9.00
16271;DHT22;8243;49.048;8.396;2024-02-23T09:55:45;13.90;8.50
16271;DHT22;8243;49.048;8.396;2024-02-23T09:58:13;13.70;8.50
16271;DHT22;8243;49.048;8.396;2024-02-23T10:00:39;13.50;9.20
16271;DHT22;8243;49.048;8.396;2024-02-23T10:03:05;13.80;9.00
16271;DHT22;8243;49.048;8.396;2024-02-23T10:05:31;13.80;8.60
16271;DHT22;8243;49.048;8.396;2024-02-23T10:07:58;12.90;9.20
16271;DHT22;8243;49.048;8.396;2024-02-23T10:10:30;12.20;10.30
16271;DHT22;8243;49.048;8.396;2024-02-23T10:12:57;12.40;11.60
16271;DHT22;8243;49.048;8.396;2024-02-23T10:15:22;12.40;11.10
16271;DHT22;8243;49.048;8.396;2024-02-23T10:17:55;12.40;11.30
16271;DHT22;8243;49.048;8.396;2024-02-23T10:20:20;13.00;11.00
16271;DHT22;8243;49.048;8.396;2024-02-23T10:22:46;12.70;10.60
16271;DHT22;8243;49.048;8.396;2024-02-23T10:25:12;12.70;10.80
16271;DHT22;8243;49.048;8.396;2024-02-23T10:27:38;12.30;11.50
16271;DHT22;8243;49.048;8.396;2024-02-23T10:30:05;12.20;11.50
16271;DHT22;8243;49.048;8.396;2024-02-23T10:32:31;12.30;11.50
16271;DHT22;8243;49.048;8.396;2024-02-23T10:35:00;12.40;11.30
16271;DHT22;8243;49.048;8.396;2024-02-23T10:37:42;12.40;11.30
16271;DHT22;8243;49.048;8.396;2024-02-23T10:40:11;12.30;11.60
16271;DHT22;8243;49.048;8.396;2024-02-23T10:42:38;12.30;11.60
16271;DHT22;8243;49.048;8.396;2024-02-23T10:45:06;12.20;11.70
16271;DHT22;8243;49.048;8.396;2024-02-23T10:47:32;12.30;12.30
16271;DHT22;8243;49.048;8.396;2024-02-23T10:50:02;12.10;12.20
16271;DHT22;8243;49.048;8.396;2024-02-23T10:52:30;12.10;13.00
16271;DHT22;8243;49.048;8.396;2024-02-23T10:54:57;12.30;12.60
16271;DHT22;8243;49.048;8.396;2024-02-23T10:57:26;12.40;12.00
16271;DHT22;8243;49.048;8.396;2024-02-23T10:59:52;12.50;12.00
16271;DHT22;8243;49.048;8.396;2024-02-23T11:02:19;12.60;12.10
16271;DHT22;8243;49.048;8.396;2024-02-23T11:04:49;12.70;11.80
16271;DHT22;8243;49.048;8.396;2024-02-23T11:07:29;13.00;11.50
16271;DHT22;8243;49.048;8.396;2024-02-23T11:09:58;13.20;11.50
16271;DHT22;8243;49.048;8.396;2024-02-23T11:12:25;13.10;11.70
16271;DHT22;8243;49.048;8.396;2024-02-23T11:14:51;13.00;11.40
16271;DHT22;8243;49.048;8.396;2024-02-23T11:17:35;13.10;11.50
16271;DHT22;8243;49.048;8.396;2024-02-23T11:20:03;12.80;12.20
16271;DHT22;8243;49.048;8.396;2024-02-23T11:22:43;12.90;12.00
16271;DHT22;8243;49.048;8.396;2024-02-23T11:25:09;12.80;12.30
16271;DHT22;8243;49.048;8.396;2024-02-23T11:27:35;12.70;12.50
16271;DHT22;8243;49.048;8.396;2024-02-23T11:30:06;12.60;12.70
16271;DHT22;8243;49.048;8.396;2024-02-23T11:35:07;12.70;13.30
16271;DHT22;8243;49.048;8.396;2024-02-23T11:37:43;12.80;12.00
16271;DHT22;8243;49.048;8.396;2024-02-23T11:40:15;12.60;12.60
16271;DHT22;8243;49.048;8.396;2024-02-23T11:42:42;12.70;12.60
16271;DHT22;8243;49.048;8.396;2024-02-23T11:45:09;12.90;12.20
16271;DHT22;8243;49.048;8.396;2024-02-23T11:47:42;12.80;11.20
16271;DHT22;8243;49.048;8.396;2024-02-23T11:50:10;12.70;11.70
16271;DHT22;8243;49.048;8.396;2024-02-23T11:52:39;12.70;12.80
16271;DHT22;8243;49.048;8.396;2024-02-23T11:55:06;12.80;12.70
16271;DHT22;8243;49.048;8.396;2024-02-23T11:57:35;12.80;12.50
16271;DHT22;8243;49.048;8.396;2024-02-23T12:00:02;12.60;11.90
16271;DHT22;8243;49.048;8.396;2024-02-23T12:02:28;12.50;12.30
16271;DHT22;8243;49.048;8.396;2024-02-23T12:04:54;12.60;12.20
16271;DHT22;8243;49.048;8.396;2024-02-23T12:07:20;12.50;12.30
16271;DHT22;8243;49.048;8.396;2024-02-23T12:09:47;12.50;11.80
16271;DHT22;8243;49.048;8.396;2024-02-23T12:12:14;12.50;12.40
16271;DHT22;8243;49.048;8.396;2024-02-23T12:14:40;12.40;12.00
16271;DHT22;8243;49.048;8.396;2024-02-23T12:17:08;12.30;12.20
16271;DHT22;8243;49.048;8.396;2024-02-23T12:19:44;12.20;12.60
16271;DHT22;8243;49.048;8.396;2024-02-23T12:22:12;12.10;13.00
16271;DHT22;8243;49.048;8.396;2024-02-23T12:24:40;12.10;12.70
16271;DHT22;8243;49.048;8.396;2024-02-23T12:27:07;12.00;12.60
16271;DHT22;8243;49.048;8.396;2024-02-23T12:29:33;12.10;12.40
16271;DHT22;8243;49.048;8.396;2024-02-23T12:32:06;12.20;12.60
16271;DHT22;8243;49.048;8.396;2024-02-23T12:34:32;12.30;13.30
16271;DHT22;8243;49.048;8.396;2024-02-23T12:36:57;12.40;13.10
16271;DHT22;8243;49.048;8.396;2024-02-23T12:39:23;12.70;12.30
16271;DHT22;8243;49.048;8.396;2024-02-23T12:41:49;13.10;12.30
16271;DHT22;8243;49.048;8.396;2024-02-23T12:44:38;13.20;11.00
16271;DHT22;8243;49.048;8.396;2024-02-23T12:47:04;13.10;10.90
16271;DHT22;8243;49.048;8.396;2024-02-23T12:49:30;12.90;11.50
16271;DHT22;8243;49.048;8.396;2024-02-23T12:51:56;12.90;11.60
16271;DHT22;8243;49.048;8.396;2024-02-23T12:54:26;12.70;11.80
16271;DHT22;8243;49.048;8.396;2024-02-23T12:56:58;12.40;11.30
16271;DHT22;8243;49.048;8.396;2024-02-23T12:59:24;12.60;11.60
16271;DHT22;8243;49.048;8.396;2024-02-23T13:01:49;12.60;12.00
16271;DHT22;8243;49.048;8.396;2024-02-23T13:04:16;12.50;11.70
16271;DHT22;8243;49.048;8.396;2024-02-23T13:06:41;12.30;12.00
16271;DHT22;8243;49.048;8.396;2024-02-23T13:09:07;12.20;12.40
16271;DHT22;8243;49.048;8.396;2024-02-23T13:11:34;12.30;12.30
16271;DHT22;8243;49.048;8.396;2024-02-23T13:14:00;12.20;12.60
16271;DHT22;8243;49.048;8.396;2024-02-23T13:16:27;12.10;12.60
16271;DHT22;8243;49.048;8.396;2024-02-23T13:18:53;12.00;12.80
16271;DHT22;8243;49.048;8.396;2024-02-23T13:21:30;12.00;13.00
16271;DHT22;8243;49.048;8.396;2024-02-23T13:23:57;12.10;12.60
16271;DHT22;8243;49.048;8.396;2024-02-23T13:26:23;12.20;13.00
16271;DHT22;8243;49.048;8.396;2024-02-23T13:28:56;12.30;12.90
16271;DHT22;8243;49.048;8.396;2024-02-23T13:31:29;12.30;12.70
16271;DHT22;8243;49.048;8.396;2024-02-23T13:33:55;12.50;12.40
16271;DHT22;8243;49.048;8.396;2024-02-23T13:36:21;12.90;11.60
16271;DHT22;8243;49.048;8.396;2024-02-23T13:38:50;13.10;11.00
16271;DHT22;8243;49.048;8.396;2024-02-23T13:41:19;13.30;11.00
16271;DHT22;8243;49.048;8.396;2024-02-23T13:43:47;13.30;10.50
16271;DHT22;8243;49.048;8.396;2024-02-23T13:46:15;13.00;9.60
16271;DHT22;8243;49.048;8.396;2024-02-23T13:48:41;13.00;10.10
16271;DHT22;8243;49.048;8.396;2024-02-23T13:51:09;13.10;10.40
16271;DHT22;8243;49.048;8.396;2024-02-23T13:53:37;13.10;9.90
16271;DHT22;8243;49.048;8.396;2024-02-23T13:56:03;13.00;10.30
16271;DHT22;8243;49.048;8.396;2024-02-23T13:58:31;12.90;10.80
16271;DHT22;8243;49.048;8.396;2024-02-23T14:01:20;12.90;10.80
16271;DHT22;8243;49.048;8.396;2024-02-23T14:03:49;12.90;10.70
16271;DHT22;8243;49.048;8.396;2024-02-23T14:06:33;12.60;10.50
16271;DHT22;8243;49.048;8.396;2024-02-23T14:09:01;12.50;10.50
16271;DHT22;8243;49.048;8.396;2024-02-23T14:11:29;12.40;11.00
16271;DHT22;8243;49.048;8.396;2024-02-23T14:13:55;12.40;11.30
16271;DHT22;8243;49.048;8.396;2024-02-23T14:16:24;12.30;11.20
16271;DHT22;8243;49.048;8.396;2024-02-23T14:18:49;12.40;11.10
16271;DHT22;8243;49.048;8.396;2024-02-23T14:21:21;12.30;11.90
16271;DHT22;8243;49.048;8.396;2024-02-23T14:23:48;12.30;12.10
16271;DHT22;8243;49.048;8.396;2024-02-23T14:26:14;12.20;11.60
16271;DHT22;8243;49.048;8.396;2024-02-23T14:28:39;12.20;12.50
16271;DHT22;8243;49.048;8.396;2024-02-23T14:31:06;12.30;11.80
16271;DHT22;8243;49.048;8.396;2024-02-23T14:33:33;12.30;11.40
16271;DHT22;8243;49.048;8.396;2024-02-23T14:36:01;12.20;12.10
16271;DHT22;8243;49.048;8.396;2024-02-23T14:38:28;12.10;12.20
16271;DHT22;8243;49.048;8.396;2024-02-23T14:41:02;12.20;12.50
16271;DHT22;8243;49.048;8.396;2024-02-23T14:43:34;12.30;12.70
16271;DHT22;8243;49.048;8.396;2024-02-23T14:46:02;12.50;11.40
16271;DHT22;8243;49.048;8.396;2024-02-23T14:48:29;12.60;11.10
16271;DHT22;8243;49.048;8.396;2024-02-23T14:51:04;12.70;11.60
16271;DHT22;8243;49.048;8.396;2024-02-23T14:53:30;12.60;11.30
16271;DHT22;8243;49.048;8.396;2024-02-23T14:55:56;12.60;11.30
16271;DHT22;8243;49.048;8.396;2024-02-23T14:58:21;12.70;11.10
16271;DHT22;8243;49.048;8.396;2024-02-23T15:00:47;12.90;10.80
16271;DHT22;8243;49.048;8.396;2024-02-23T15:03:13;13.00;9.90
16271;DHT22;8243;49.048;8.396;2024-02-23T15:05:40;13.10;9.70
16271;DHT22;8243;49.048;8.396;2024-02-23T15:08:06;12.90;9.80
16271;DHT22;8243;49.048;8.396;2024-02-23T15:10:33;12.80;10.10
16271;DHT22;8243;49.048;8.396;2024-02-23T15:12:59;12.80;10.00
16271;DHT22;8243;49.048;8.396;2024-02-23T15:15:25;12.70;10.60
16271;DHT22;8243;49.048;8.396;2024-02-23T15:17:51;12.50;10.50
16271;DHT22;8243;49.048;8.396;2024-02-23T15:20:21;12.30;11.40
16271;DHT22;8243;49.048;8.396;2024-02-23T15:22:46;12.30;12.00
16271;DHT22;8243;49.048;8.396;2024-02-23T15:25:27;12.20;11.70
16271;DHT22;8243;49.048;8.396;2024-02-23T15:27:53;12.00;12.10
16271;DHT22;8243;49.048;8.396;2024-02-23T15:30:25;11.90;11.40
16271;DHT22;8243;49.048;8.396;2024-02-23T15:32:50;11.90;11.90
16271;DHT22;8243;49.048;8.396;2024-02-23T15:35:17;11.80;11.20
16271;DHT22;8243;49.048;8.396;2024-02-23T15:37:42;11.90;11.40
16271;DHT22;8243;49.048;8.396;2024-02-23T15:40:08;12.10;10.20
16271;DHT22;8243;49.048;8.396;2024-02-23T15:42:40;12.30;10.30
16271;DHT22;8243;49.048;8.396;2024-02-23T15:45:10;12.40;9.70
16271;DHT22;8243;49.048;8.396;2024-02-23T15:47:36;12.30;8.50
16271;DHT22;8243;49.048;8.396;2024-02-23T15:50:02;12.20;9.30
16271;DHT22;8243;49.048;8.396;2024-02-23T15:53:22;12.30;10.00
16271;DHT22;8243;49.048;8.396;2024-02-23T15:55:32;12.30;10.10
16271;DHT22;8243;49.048;8.396;2024-02-23T15:57:57;12.20;10.20
16271;DHT22;8243;49.048;8.396;2024-02-23T16:00:29;12.00;10.90
16271;DHT22;8243;49.048;8.396;2024-02-23T16:02:55;12.10;10.40
16271;DHT22;8243;49.048;8.396;2024-02-23T16:05:22;12.10;10.60
16271;DHT22;8243;49.048;8.396;2024-02-23T16:07:47;11.90;10.10
16271;DHT22;8243;49.048;8.396;2024-02-23T16:10:15;11.80;10.90
16271;DHT22;8243;49.048;8.396;2024-02-23T16:12:41;11.70;11.00
16271;DHT22;8243;49.048;8.396;2024-02-23T16:15:07;11.60;11.50
16271;DHT22;8243;49.048;8.396;2024-02-23T16:17:34;11.60;11.50
16271;DHT22;8243;49.048;8.396;2024-02-23T16:20:01;11.50;11.60